Time;durP1;ratioP1;P1;durP2;ratioP2;P2;SDS_P1;SDS_P2;PMS_P1;PMS_P2;Temp;Humidity;BMP_temperature;BMP_pressure;BME280_temperature;BME280_humidity;BME280_pressure;Samples;Min_cycle;Max_cycle;Signal;HPM_P1;HPM_P2
2022/10/11 00:03:40;;;;;;;12.75;8.77;;;17.40;78.60;;;;;;10869083;32;20031;-79
2022/10/11 00:09:42;;;;;;;14.43;7.93;;;17.30;78.60;;;;;;10868956;32;20054;-79
2022/10/11 00:15:44;;;;;;;11.30;8.25;;;17.30;78.70;;;;;;10868362;32;20032;-79
2022/10/11 00:21:46;;;;;;;10.85;8.30;;;17.20;78.80;;;;;;10868550;32;20027;-79
2022/10/11 00:27:49;;;;;;;10.82;9.15;;;17.30;79.10;;;;;;10868338;32;20027;-79
2022/10/11 00:34:16;;;;;;;11.45;7.75;;;17.20;79.00;;;;;;10868104;32;20028;-79
2022/10/11 00:40:20;;;;;;;11.60;8.13;;;17.20;78.90;;;;;;10867888;32;20392;-78
2022/10/11 00:46:27;;;;;;;9.27;7.87;;;17.10;79.10;;;;;;10867767;32;20038;-78
2022/10/11 00:52:40;;;;;;;11.53;7.97;;;17.00;79.30;;;;;;10854051;32;20050;-78
2022/10/11 00:58:42;;;;;;;13.70;8.75;;;16.90;79.30;;;;;;10854304;32;20012;-78
2022/10/11 01:04:45;;;;;;;9.43;6.45;;;16.90;79.40;;;;;;10867318;32;20065;-78
2022/10/11 01:10:47;;;;;;;10.73;7.57;;;16.90;79.40;;;;;;10867124;32;20046;-78
2022/10/11 01:17:11;;;;;;;10.77;6.95;;;16.90;79.30;;;;;;10853503;32;20024;-78
2022/10/11 01:23:43;;;;;;;13.57;7.57;;;17.00;79.20;;;;;;10866927;32;20400;-78
2022/10/11 01:29:56;;;;;;;11.30;8.70;;;16.80;79.30;;;;;;10851307;32;20039;-78
2022/10/11 01:36:26;;;;;;;10.75;7.87;;;16.90;79.30;;;;;;10866779;32;20043;-78
2022/10/11 01:42:29;;;;;;;10.50;7.65;;;16.90;79.30;;;;;;10862201;32;20313;-78
2022/10/11 01:48:55;;;;;;;7.93;6.00;;;16.80;79.50;;;;;;10866600;32;20015;-78
2022/10/11 01:55:08;;;;;;;9.60;6.80;;;16.70;79.50;;;;;;10866420;32;20046;-78
2022/10/11 02:01:40;;;;;;;10.82;8.63;;;16.70;79.80;;;;;;10853083;32;20114;-79
2022/10/11 02:07:44;;;;;;;8.57;6.87;;;16.70;79.70;;;;;;10717386;33;20021;-79
2022/10/11 02:13:53;;;;;;;9.50;6.68;;;16.70;79.60;;;;;;10722206;33;20342;-80
2022/10/11 02:19:57;;;;;;;13.05;8.40;;;16.80;79.40;;;;;;10723122;33;20051;-79
2022/10/11 02:26:03;;;;;;;13.20;8.40;;;16.70;79.40;;;;;;10722811;33;20028;-79
2022/10/11 02:32:06;;;;;;;13.30;8.02;;;16.70;79.60;;;;;;10720935;33;20444;-79
2022/10/11 02:38:23;;;;;;;12.10;7.10;;;16.70;79.60;;;;;;10722087;33;20021;-79
2022/10/11 02:44:36;;;;;;;8.52;5.78;;;16.70;79.70;;;;;;10829135;32;20024;-79
2022/10/11 02:50:39;;;;;;;13.70;7.22;;;16.50;79.70;;;;;;10858688;32;20422;-79
2022/10/11 02:56:41;;;;;;;10.43;7.97;;;16.50;79.90;;;;;;10867544;32;20043;-78
2022/10/11 03:02:43;;;;;;;11.40;6.85;;;16.50;79.90;;;;;;10871357;32;20027;-78
2022/10/11 03:08:45;;;;;;;6.93;5.68;;;16.40;79.90;;;;;;10871203;32;20023;-79
2022/10/11 03:14:46;;;;;;;10.63;7.35;;;16.30;80.00;;;;;;10870867;32;20020;-78
2022/10/11 03:20:49;;;;;;;9.18;6.60;;;16.30;80.10;;;;;;10857578;32;20019;-78
2022/10/11 03:26:51;;;;;;;9.15;6.90;;;16.20;80.20;;;;;;10870732;32;20023;-78
2022/10/11 03:32:53;;;;;;;8.90;7.18;;;16.20;80.20;;;;;;10874028;32;20092;-78
2022/10/11 03:38:55;;;;;;;9.20;6.05;;;16.10;80.20;;;;;;10853205;32;20047;-78
2022/10/11 03:44:58;;;;;;;10.85;7.97;;;16.10;80.20;;;;;;10869889;32;20298;-79
2022/10/11 03:58:46;;;;;;;9.20;6.15;;;16.20;79.80;;;;;;10715632;33;20051;-78
2022/10/11 04:04:48;;;;;;;11.48;8.50;;;16.10;80.00;;;;;;10717780;33;20346;-79
2022/10/11 04:10:51;;;;;;;8.57;6.22;;;16.20;80.10;;;;;;10718272;33;20055;-79
2022/10/11 04:16:53;;;;;;;15.90;7.32;;;16.10;80.10;;;;;;10225029;33;16440606;-80
2022/10/11 04:22:55;;;;;;;8.50;6.30;;;16.00;80.30;;;;;;10717505;33;20055;-80
2022/10/11 04:28:57;;;;;;;9.88;6.93;;;15.90;80.20;;;;;;10715227;33;20029;-80
2022/10/11 04:35:00;;;;;;;7.50;6.07;;;16.00;80.30;;;;;;10843881;32;20046;-79
2022/10/11 04:41:10;;;;;;;7.90;5.30;;;15.90;80.20;;;;;;10868238;32;20054;-80
2022/10/11 04:47:12;;;;;;;9.45;6.43;;;15.80;80.40;;;;;;10864680;32;20027;-80
2022/10/11 04:53:15;;;;;;;9.35;7.47;;;15.80;80.40;;;;;;10863421;32;20028;-79
2022/10/11 04:59:17;;;;;;;9.02;6.47;;;15.80;80.30;;;;;;10863568;32;20328;-79
2022/10/11 05:05:19;;;;;;;15.65;8.27;;;15.80;80.20;;;;;;10866908;32;20044;-80
2022/10/11 05:11:22;;;;;;;8.05;6.22;;;15.80;80.20;;;;;;10894149;32;20054;-80
2022/10/11 05:17:24;;;;;;;10.55;7.90;;;15.70;80.30;;;;;;10903302;32;20410;-80
2022/10/11 05:23:27;;;;;;;16.27;7.32;;;15.70;80.40;;;;;;10902055;32;20412;-79
2022/10/11 05:29:29;;;;;;;9.95;8.65;;;15.60;80.60;;;;;;10893941;32;20023;-79
2022/10/11 05:35:31;;;;;;;9.98;7.40;;;15.60;80.60;;;;;;10903970;32;20113;-79
2022/10/11 05:41:34;;;;;;;9.93;6.20;;;15.70;80.40;;;;;;10909118;32;20363;-79
2022/10/11 05:47:36;;;;;;;9.45;7.55;;;15.60;80.50;;;;;;10907828;32;20035;-79
2022/10/11 05:53:38;;;;;;;7.05;4.82;;;15.60;80.70;;;;;;10911202;32;20019;-73
2022/10/11 05:59:40;;;;;;;10.20;8.30;;;15.70;80.80;;;;;;10910867;32;20392;-73
2022/10/11 06:05:43;;;;;;;13.93;7.70;;;15.70;80.70;;;;;;10885337;32;20027;-73
2022/10/11 06:11:54;;;;;;;18.73;6.95;;;15.80;80.60;;;;;;10873092;32;20062;-73
2022/10/11 06:17:58;;;;;;;12.02;6.68;;;15.70;80.60;;;;;;10870585;27;20024;-73
2022/10/11 06:24:01;;;;;;;9.32;6.55;;;15.70;80.70;;;;;;10872076;32;20027;-73
2022/10/11 06:30:04;;;;;;;9.35;6.90;;;15.80;80.70;;;;;;10868157;32;20419;-73
2022/10/11 06:36:13;;;;;;;9.90;6.97;;;16.00;80.60;;;;;;10858959;32;20024;-73
2022/10/11 06:42:16;;;;;;;10.05;6.25;;;16.10;80.50;;;;;;10870729;32;20028;-73
2022/10/11 06:48:19;;;;;;;12.27;5.87;;;16.20;80.50;;;;;;10858438;32;20032;-73
2022/10/11 06:54:21;;;;;;;7.57;5.22;;;16.20;81.00;;;;;;10870958;32;20043;-73
2022/10/11 07:00:23;;;;;;;8.57;6.50;;;16.20;81.40;;;;;;10871272;32;20020;-73
2022/10/11 07:06:29;;;;;;;9.20;7.07;;;16.30;81.40;;;;;;10871094;32;20042;-73
2022/10/11 07:12:31;;;;;;;10.10;6.00;;;16.40;81.30;;;;;;10868380;32;20031;-73
2022/10/11 07:18:33;;;;;;;9.73;7.55;;;16.50;81.20;;;;;;10870401;32;20050;-73
2022/10/11 07:24:36;;;;;;;8.70;6.78;;;16.50;81.00;;;;;;10870232;32;20062;-74
2022/10/11 07:30:41;;;;;;;10.88;5.82;;;16.60;81.10;;;;;;10852793;32;20028;-73
2022/10/11 07:36:43;;;;;;;12.65;5.55;;;16.70;80.90;;;;;;10870256;32;20050;-73
2022/10/11 07:42:45;;;;;;;8.70;5.47;;;16.70;80.90;;;;;;10869878;32;20028;-73
2022/10/11 07:48:49;;;;;;;10.18;6.40;;;16.80;80.70;;;;;;10860541;32;20020;-73
2022/10/11 07:54:51;;;;;;;8.20;6.05;;;16.90;80.40;;;;;;10867893;32;20507;-73
2022/10/11 08:00:53;;;;;;;10.48;7.40;;;17.00;80.20;;;;;;10868971;32;20042;-73
2022/10/11 08:06:55;;;;;;;13.85;9.52;;;17.10;80.10;;;;;;10864437;32;20046;-73
2022/10/11 08:12:57;;;;;;;10.75;8.20;;;17.20;79.90;;;;;;10868747;32;20019;-73
2022/10/11 08:19:01;;;;;;;13.98;10.50;;;17.20;79.80;;;;;;10868549;32;20039;-73
2022/10/11 08:25:42;;;;;;;15.57;9.27;;;17.30;79.70;;;;;;10500862;32;18941287;-73
2022/10/11 08:31:44;;;;;;;11.95;8.30;;;17.40;79.40;;;;;;11050619;32;20054;-73
2022/10/11 08:37:47;;;;;;;10.02;7.50;;;17.50;79.30;;;;;;11050565;32;20054;-73
2022/10/11 08:43:59;;;;;;;10.30;7.28;;;17.60;79.10;;;;;;11049596;32;20030;-73
2022/10/11 08:50:04;;;;;;;11.25;8.75;;;17.70;78.80;;;;;;11050138;32;20033;-73
2022/10/11 08:56:07;;;;;;;11.85;8.85;;;17.80;78.70;;;;;;11026646;32;20056;-73
2022/10/11 09:02:16;;;;;;;11.38;8.57;;;17.80;78.70;;;;;;11045252;32;20014;-73
2022/10/11 09:08:51;;;;;;;14.25;8.52;;;17.90;78.40;;;;;;11047079;32;20338;-73
2022/10/11 09:15:15;;;;;;;13.60;8.82;;;18.10;78.10;;;;;;10890291;32;20141;-73
2022/10/11 09:21:44;;;;;;;12.18;7.80;;;18.20;77.90;;;;;;10891173;32;20390;-73
2022/10/11 09:28:12;;;;;;;11.38;8.13;;;18.30;77.70;;;;;;10892811;32;20054;-73
2022/10/11 09:34:15;;;;;;;19.05;10.25;;;18.40;77.40;;;;;;10874919;32;20388;-72
2022/10/11 09:40:37;;;;;;;12.23;8.27;;;18.50;77.10;;;;;;10865058;32;20078;-72
2022/10/11 09:46:41;;;;;;;11.45;8.52;;;18.60;76.50;;;;;;10855075;32;20016;-72
2022/10/11 09:52:50;;;;;;;11.12;7.30;;;18.70;76.20;;;;;;11016169;32;20386;-72
2022/10/11 09:59:14;;;;;;;7.90;5.70;;;18.90;75.90;;;;;;11019616;32;20026;-74
2022/10/11 10:05:19;;;;;;;7.95;6.22;;;19.10;75.40;;;;;;11021820;32;20044;-74
2022/10/11 10:11:21;;;;;;;8.80;6.22;;;19.20;75.40;;;;;;11017562;32;20022;-73
2022/10/11 10:17:26;;;;;;;8.20;5.93;;;19.30;74.90;;;;;;11018558;32;20386;-73
2022/10/11 10:23:34;;;;;;;8.13;5.80;;;19.50;74.60;;;;;;11016806;32;20026;-74
2022/10/11 10:29:37;;;;;;;11.45;5.55;;;19.70;74.00;;;;;;11019045;32;20049;-74
2022/10/11 10:35:54;;;;;;;13.80;7.03;;;19.80;73.70;;;;;;11019335;32;20153;-74
2022/10/11 10:41:56;;;;;;;7.95;5.65;;;19.90;73.40;;;;;;11016192;32;20061;-73
2022/10/11 10:48:35;;;;;;;7.53;4.93;;;20.10;72.60;;;;;;11019096;32;20030;-73
2022/10/11 10:54:55;;;;;;;11.90;6.47;;;20.30;72.30;;;;;;11015882;32;20080;-73
2022/10/11 11:01:37;;;;;;;9.30;4.80;;;20.60;71.90;;;;;;11019689;32;20022;-74
2022/10/11 11:07:57;;;;;;;7.72;5.00;;;20.80;71.40;;;;;;11019712;32;20049;-73
2022/10/11 11:14:30;;;;;;;10.88;6.18;;;21.00;70.90;;;;;;11014983;32;20026;-73
2022/10/11 11:20:59;;;;;;;9.00;7.07;;;21.30;70.40;;;;;;11019095;32;20033;-73
2022/10/11 11:27:18;;;;;;;7.82;5.80;;;21.60;69.80;;;;;;11014553;32;20064;-73
2022/10/11 11:33:42;;;;;;;8.32;5.15;;;21.80;68.80;;;;;;11018696;32;20018;-73
2022/10/11 11:40:12;;;;;;;13.23;6.97;;;21.80;68.60;;;;;;10861306;32;20054;-74
2022/10/11 11:46:20;;;;;;;14.27;7.03;;;21.90;68.50;;;;;;10864010;32;20046;-73
2022/10/11 11:52:32;;;;;;;10.33;5.37;;;21.90;68.60;;;;;;10861857;32;20392;-72
2022/10/11 11:58:45;;;;;;;11.55;6.25;;;21.80;68.00;;;;;;10862618;32;20046;-73
2022/10/11 12:04:49;;;;;;;7.22;4.70;;;21.60;67.60;;;;;;10860485;32;20066;-73
2022/10/11 12:10:58;;;;;;;9.30;5.97;;;21.50;67.80;;;;;;10859962;32;20027;-73
2022/10/11 12:17:40;;;;;;;7.25;4.65;;;21.40;67.30;;;;;;10961326;32;20046;-73
2022/10/11 12:23:45;;;;;;;10.02;4.43;;;21.30;67.80;;;;;;10979148;32;20018;-79
2022/10/11 12:29:48;;;;;;;10.80;4.90;;;21.30;67.70;;;;;;10975981;32;20389;-77
2022/10/11 12:35:54;;;;;;;6.57;4.53;;;21.40;67.10;;;;;;10979449;32;20015;-78
2022/10/11 12:42:17;;;;;;;11.00;4.03;;;21.50;67.30;;;;;;10979405;32;20045;-80
2022/10/11 12:48:37;;;;;;;10.40;4.10;;;21.40;67.30;;;;;;10978837;32;20023;-79
2022/10/11 12:55:07;;;;;;;11.23;4.60;;;21.50;67.10;;;;;;11003814;32;20025;-78
2022/10/11 13:01:36;;;;;;;7.60;5.18;;;21.60;66.60;;;;;;11016652;32;20026;-80
2022/10/11 13:07:40;;;;;;;8.25;4.37;;;21.70;66.70;;;;;;11013402;32;20088;-78
2022/10/11 13:13:50;;;;;;;6.50;4.10;;;21.80;66.10;;;;;;11022301;32;20030;-78
2022/10/11 13:20:05;;;;;;;7.55;4.10;;;21.80;66.00;;;;;;11023329;32;20045;-77
2022/10/11 13:26:08;;;;;;;5.37;3.72;;;21.80;65.70;;;;;;11023363;32;20425;-78
2022/10/11 13:32:25;;;;;;;6.80;4.65;;;21.80;65.80;;;;;;11023465;32;20061;-80
2022/10/11 13:38:35;;;;;;;5.93;4.10;;;21.80;65.80;;;;;;11022835;32;20049;-78
2022/10/11 13:44:39;;;;;;;6.70;4.43;;;21.70;65.70;;;;;;11022456;32;20088;-79
2022/10/11 13:50:45;;;;;;;7.70;3.40;;;21.70;65.90;;;;;;11022449;32;20045;-78
2022/10/11 13:56:50;;;;;;;7.53;4.40;;;21.60;65.80;;;;;;11016956;32;20179;-79
2022/10/11 14:03:13;;;;;;;7.43;3.97;;;21.60;65.90;;;;;;11021748;32;20026;-79
2022/10/11 14:09:23;;;;;;;5.30;3.58;;;21.70;65.70;;;;;;11012211;32;20107;-79
2022/10/11 14:15:31;;;;;;;9.15;4.70;;;21.70;65.70;;;;;;10983077;32;20027;-78
2022/10/11 14:21:45;;;;;;;9.85;4.47;;;21.80;65.50;;;;;;10980429;32;20023;-78
2022/10/11 14:27:48;;;;;;;5.70;3.78;;;21.90;64.70;;;;;;10982170;32;20331;-77
2022/10/11 14:33:51;;;;;;;5.53;3.72;;;22.00;64.90;;;;;;10982060;32;20319;-76
2022/10/11 14:39:54;;;;;;;5.40;3.37;;;22.20;64.60;;;;;;10982785;32;20044;-77
2022/10/11 14:45:56;;;;;;;6.28;3.85;;;22.40;64.30;;;;;;10982199;32;20433;-78
2022/10/11 14:51:58;;;;;;;4.20;2.97;;;22.60;64.00;;;;;;10982238;32;20073;-78
2022/10/11 14:58:01;;;;;;;5.60;4.00;;;22.70;63.60;;;;;;10981928;32;20338;-78
2022/10/11 15:04:04;;;;;;;9.48;4.85;;;22.80;63.40;;;;;;10981752;32;20049;-77
2022/10/11 15:10:41;;;;;;;8.43;4.93;;;22.80;63.10;;;;;;10977293;32;20019;-78
2022/10/11 15:16:43;;;;;;;7.95;4.37;;;23.10;62.60;;;;;;10982111;32;20033;-78
2022/10/11 15:22:45;;;;;;;5.80;3.87;;;23.20;62.20;;;;;;10981194;32;20022;-79
2022/10/11 15:28:48;;;;;;;6.72;4.37;;;23.80;61.10;;;;;;10982674;32;20053;-78
2022/10/11 15:34:50;;;;;;;6.22;3.90;;;24.90;59.20;;;;;;10984994;32;20034;-78
2022/10/11 15:40:53;;;;;;;8.43;4.00;;;24.50;59.50;;;;;;10968750;32;20300;-79
2022/10/11 15:46:55;;;;;;;5.68;3.75;;;23.90;60.90;;;;;;10966998;32;20026;-79
2022/10/11 15:52:57;;;;;;;14.95;4.28;;;23.30;62.20;;;;;;10981710;32;20049;-78
2022/10/11 15:58:59;;;;;;;6.37;4.15;;;23.00;62.90;;;;;;11018114;32;20027;-78
2022/10/11 16:05:01;;;;;;;8.48;4.00;;;23.10;63.10;;;;;;11017973;32;20022;-78
2022/10/11 16:11:05;;;;;;;8.65;3.75;;;23.30;62.40;;;;;;11016956;32;20065;-81
2022/10/11 16:17:08;;;;;;;6.62;4.12;;;22.80;63.30;;;;;;11004352;32;20448;-78
2022/10/11 16:23:11;;;;;;;8.55;4.65;;;22.30;64.20;;;;;;10936864;26;20054;-78
2022/10/11 16:29:13;;;;;;;10.63;4.78;;;22.00;64.80;;;;;;10885280;32;20050;-78
2022/10/11 16:35:15;;;;;;;6.87;4.15;;;21.70;65.50;;;;;;10898254;32;20050;-78
2022/10/11 16:41:17;;;;;;;5.72;3.22;;;21.50;65.90;;;;;;10895107;32;20407;-78
2022/10/11 16:47:19;;;;;;;5.75;4.00;;;21.30;66.50;;;;;;10904462;32;20058;-78
2022/10/11 16:53:21;;;;;;;9.63;5.87;;;21.00;66.90;;;;;;10904479;32;20027;-78
2022/10/11 16:59:23;;;;;;;11.88;5.00;;;20.90;67.20;;;;;;10904215;32;20050;-78
2022/10/11 17:05:26;;;;;;;8.07;5.30;;;20.80;67.40;;;;;;10899886;32;20022;-78
2022/10/11 17:11:29;;;;;;;8.45;4.65;;;20.70;67.60;;;;;;10903905;32;20023;-78
2022/10/11 17:17:30;;;;;;;9.25;5.32;;;20.60;67.80;;;;;;10903923;32;20020;-78
2022/10/11 17:23:34;;;;;;;6.07;3.72;;;20.50;67.90;;;;;;10886396;32;20050;-78
2022/10/11 17:29:36;;;;;;;6.55;4.07;;;20.50;68.00;;;;;;10903371;32;20073;-78
2022/10/11 17:35:39;;;;;;;6.35;4.35;;;20.40;68.10;;;;;;10873943;32;20062;-78
2022/10/11 17:41:42;;;;;;;9.13;4.87;;;20.30;68.30;;;;;;10886446;32;20351;-78
2022/10/11 17:47:44;;;;;;;6.25;3.87;;;20.20;68.50;;;;;;10903133;32;20434;-78
2022/10/11 17:53:47;;;;;;;6.55;4.07;;;20.20;69.00;;;;;;10902449;32;20023;-78
2022/10/11 18:00:12;;;;;;;11.32;4.55;;;20.00;69.10;;;;;;10903644;32;20031;-78
2022/10/11 18:06:38;;;;;;;7.85;5.18;;;20.00;69.40;;;;;;10902103;32;20053;-78
2022/10/11 18:12:40;;;;;;;9.35;5.20;;;19.90;69.50;;;;;;10891163;32;20065;-78
2022/10/11 18:18:43;;;;;;;9.70;4.57;;;19.80;69.70;;;;;;10864446;32;20027;-78
2022/10/11 18:24:45;;;;;;;4.25;3.53;;;19.80;69.90;;;;;;10860668;32;20023;-77
2022/10/11 18:30:47;;;;;;;6.60;4.30;;;19.80;70.00;;;;;;10864021;32;20054;-78
2022/10/11 18:36:50;;;;;;;7.05;5.50;;;19.70;70.10;;;;;;10864400;32;20430;-77
2022/10/11 18:42:52;;;;;;;54.08;40.38;;;19.60;70.30;;;;;;10864448;32;20050;-77
2022/10/11 18:48:56;;;;;;;11.90;7.95;;;19.50;70.50;;;;;;10863541;32;20072;-77
2022/10/11 18:55:01;;;;;;;8.63;5.97;;;19.40;70.60;;;;;;10863730;32;20059;-78
2022/10/11 19:01:15;;;;;;;12.68;6.00;;;19.30;70.80;;;;;;10862707;32;20062;-76
2022/10/11 19:07:22;;;;;;;11.43;6.78;;;19.30;70.90;;;;;;10861720;32;20061;-76
2022/10/11 19:13:24;;;;;;;10.88;7.00;;;19.30;71.10;;;;;;10863299;32;20024;-77
2022/10/11 19:19:27;;;;;;;7.45;5.45;;;19.20;71.40;;;;;;10864824;32;20293;-77
2022/10/11 19:25:33;;;;;;;6.68;5.72;;;19.10;71.50;;;;;;10858485;32;20028;-77
2022/10/11 19:31:57;;;;;;;10.73;5.10;;;19.10;71.70;;;;;;10862115;32;20355;-77
2022/10/11 19:37:58;;;;;;;9.52;5.53;;;18.90;71.90;;;;;;10861579;32;20036;-77
2022/10/11 19:44:01;;;;;;;9.10;6.75;;;19.00;72.30;;;;;;10862071;32;20027;-77
2022/10/11 19:50:03;;;;;;;12.88;5.47;;;19.00;72.40;;;;;;10857908;32;20392;-77
2022/10/11 19:56:09;;;;;;;9.73;6.03;;;19.00;72.60;;;;;;10857846;32;20054;-77
2022/10/11 20:02:13;;;;;;;8.65;6.03;;;19.00;72.70;;;;;;10861866;32;20341;-78
2022/10/11 20:08:17;;;;;;;6.87;4.75;;;19.00;72.90;;;;;;10861516;32;20023;-78
2022/10/11 20:14:19;;;;;;;9.73;6.90;;;18.90;73.20;;;;;;10861602;32;20016;-78
2022/10/11 20:20:21;;;;;;;10.05;7.62;;;18.90;73.80;;;;;;10860284;32;20032;-78
2022/10/11 20:26:24;;;;;;;7.40;5.22;;;18.90;73.90;;;;;;10861113;32;20317;-78
2022/10/11 20:32:43;;;;;;;10.00;6.50;;;18.80;74.00;;;;;;10856613;32;20078;-78
2022/10/11 20:38:47;;;;;;;9.40;5.90;;;18.80;74.00;;;;;;10861096;32;20359;-78
2022/10/11 20:44:49;;;;;;;12.57;7.65;;;18.80;74.50;;;;;;10860954;32;20027;-78
2022/10/11 20:50:50;;;;;;;10.00;7.07;;;18.70;74.70;;;;;;10860032;32;20050;-78
2022/10/11 20:56:56;;;;;;;12.68;7.45;;;18.60;74.60;;;;;;10857435;32;20058;-78
2022/10/11 21:02:58;;;;;;;12.52;8.40;;;18.60;74.80;;;;;;10862740;32;20094;-78
2022/10/11 21:09:02;;;;;;;11.60;6.65;;;18.50;74.90;;;;;;10860299;32;20023;-78
2022/10/11 21:15:05;;;;;;;7.75;5.78;;;18.50;75.10;;;;;;10860643;32;20020;-80
2022/10/11 21:21:11;;;;;;;12.05;9.43;;;18.40;75.60;;;;;;10860699;32;20023;-79
2022/10/11 21:27:13;;;;;;;14.30;9.30;;;18.30;76.40;;;;;;10860969;32;20328;-78
2022/10/11 21:33:15;;;;;;;11.25;8.40;;;18.20;76.80;;;;;;10866125;32;20032;-79
2022/10/11 21:39:18;;;;;;;9.90;6.95;;;18.30;76.80;;;;;;10866220;32;20027;-78
2022/10/11 21:45:20;;;;;;;10.77;7.37;;;18.30;76.70;;;;;;10865065;32;20062;-78
2022/10/11 21:51:24;;;;;;;12.43;7.40;;;18.30;76.90;;;;;;10865795;32;20028;-78
2022/10/11 21:57:26;;;;;;;10.48;7.80;;;18.20;76.80;;;;;;10865778;32;20058;-78
2022/10/11 22:03:29;;;;;;;14.23;8.40;;;18.20;76.90;;;;;;10865526;32;20067;-78
2022/10/11 22:09:33;;;;;;;12.13;7.87;;;18.20;76.80;;;;;;10865409;32;20027;-78
2022/10/11 22:15:36;;;;;;;9.38;7.53;;;18.10;76.80;;;;;;10865046;32;20028;-78
2022/10/11 22:21:38;;;;;;;8.85;7.10;;;18.10;76.90;;;;;;10864972;32;20090;-78
2022/10/11 22:27:41;;;;;;;14.15;9.45;;;18.00;77.00;;;;;;10864823;32;20392;-78
2022/10/11 22:33:44;;;;;;;13.40;9.93;;;18.00;77.10;;;;;;10864639;32;20024;-78
2022/10/11 22:39:46;;;;;;;10.82;8.15;;;18.00;77.20;;;;;;10861922;32;20042;-78
2022/10/11 22:45:48;;;;;;;10.93;7.93;;;17.90;77.20;;;;;;10864187;32;20023;-72
2022/10/11 22:51:50;;;;;;;11.35;8.18;;;17.90;77.30;;;;;;10864087;32;20035;-72
2022/10/11 22:57:52;;;;;;;11.07;7.65;;;17.80;77.40;;;;;;10863907;32;20104;-72
2022/10/11 23:03:55;;;;;;;9.27;7.12;;;17.80;77.40;;;;;;10863616;32;20093;-72
2022/10/11 23:09:58;;;;;;;9.00;7.18;;;17.80;77.60;;;;;;10862623;32;20046;-72
2022/10/11 23:16:05;;;;;;;11.20;8.55;;;17.80;77.60;;;;;;10863504;32;20024;-72
2022/10/11 23:22:07;;;;;;;9.00;7.00;;;17.80;77.80;;;;;;10863124;32;20035;-72
2022/10/11 23:28:09;;;;;;;11.43;7.07;;;17.70;77.90;;;;;;10863078;32;20051;-72
2022/10/11 23:34:14;;;;;;;14.95;7.55;;;17.70;78.00;;;;;;10857865;32;20058;-72
2022/10/11 23:40:16;;;;;;;11.73;7.32;;;17.70;78.00;;;;;;10861822;32;20176;-72
2022/10/11 23:46:20;;;;;;;12.50;6.05;;;17.70;78.10;;;;;;10862597;32;20068;-72
2022/10/11 23:52:22;;;;;;;11.80;7.82;;;17.60;78.20;;;;;;10859553;32;20023;-72
2022/10/11 23:58:24;;;;;;;7.72;6.65;;;17.70;78.40;;;;;;10862315;32;20023;-72
